LLSDLLET

Guest
Details From LLSD - Sde Dov
To LLET - EILAT
Flight Number -
Tags generated
Created
Modified
Stats Distance 154 nm / 285 km
Max Altitude 11,400 ft / 3,475 m
Waypoints 5
Social Downloads 2
Likes 0
Share VATSIM

Download

Looking for another format? Having issues loading an existing format? Contact us
Advertisement - Login to hide

Notes

Basic altitude profile: - Ascent Rate: 2500ft/min - Ascent Speed: 250kts - Cruise Altitude: 35000ft - Cruise Speed: 420kts - Descent Rate: 1500ft/min - Descent Speed: 250kts Options: - Use NATs: yes - Use PACOTS: yes - Use low airways: yes - Use high airways: yes

Route

LLSD GEVES J13 LOT LLET

ID Type Via Altitude Latitude Longitude Leg Dist Tot Dist Heading (true) Name
O LLSD APT - 0 ft / 0 m 32.11466˚ 34.78224˚ - 0 nm - Sde Dov
GEVES FIX - 11,400 ft / 3,475 m 30.44948˚ 34.93913˚ 100 nm 100 nm 175° / 175° -
OVD VOR J13 (AWY-LO) 8,000 ft / 2,438 m 29.96667˚ 34.94722˚ 28 nm 129 nm 179° / 179° OVDA VOR-DME
LOT VOR J13 (AWY-LO) 5,000 ft / 1,524 m 29.60778˚ 34.97556˚ 21 nm 150 nm 176° / 176° EILOT VOR-DME
O LLET APT - 0 ft / 0 m 29.56127˚ 34.96011˚ 2 nm 153 nm 196° / 196° EILAT

Altitude Profile

Advertisement - Login to hide

LLSD

Details ICAO LLSD (SDV)
Name Sde Dov
Region Israel
Timezone Asia/Jerusalem (UTC+2.0)
Stats Elevation 43 ft / 13 m (AMSL)
Location 32.114661° 34.782238°
Runways 1
Magnetic Variation 4.698° E

METAR

Not found

TAF

TAF LLSD 181704Z 1818/1918 06005KT CAVOK BECMG 1908/1910 36010KT PROB40 1911/1917 36016KT TX22/1911Z TN14/1903Z

Decode

Departure Runways

ID Width Length Bearing (true) Bearing (mag) Surface Threshold Offset Overrun Length
03 98 ft / 30 m 5,704 ft / 1,738 m 27.61° 22.91° Asphalt 341 ft / 104 m 0 ft / 0 m
21 98 ft / 30 m 5,704 ft / 1,738 m 207.61° 202.91° Asphalt 230 ft / 70 m 0 ft / 0 m

LLET

Details ICAO LLET (ETH)
Name EILAT
Region Israel
Timezone Asia/Jerusalem (UTC+2.0)
Stats Elevation 42 ft / 13 m (AMSL)
Location 29.561268° 34.960111°
Runways 1
Magnetic Variation 4.431° E

METAR

Not found

TAF

TAF LLET 181107Z 1812/1912 18005KT CAVOK BECMG 1816/1818 36006KT BECMG 1900/1902 03010KT PROB40 1910/1912 18005KT TX28/1812Z TN15/1904Z

Decode

Destination Runways

ID Width Length Bearing (true) Bearing (mag) Surface Threshold Offset Overrun Length
03 89 ft / 27 m 6,249 ft / 1,905 m 27.93° 23.50° Asphalt 945 ft / 288 m 125 ft / 38 m
21 89 ft / 27 m 6,249 ft / 1,905 m 207.93° 203.50° Asphalt 0 ft / 0 m 0 ft / 0 m

Popular Alternatives